Time;durP1;ratioP1;P1;durP2;ratioP2;P2;SDS_P1;SDS_P2;PMS_P1;PMS_P2;Temp;Humidity;BMP_temperature;BMP_pressure;BME280_temperature;BME280_humidity;BME280_pressure;Samples;Min_cycle;Max_cycle;Signal;HPM_P1;HPM_P2
2022/05/29 00:02:23;;;;;;;0.38;0.30;;;10.40;69.30;;;;;;4977612;28;20037;-77
2022/05/29 00:04:48;;;;;;;0.15;0.15;;;10.40;69.40;;;;;;4977612;28;20038;-78
2022/05/29 00:07:17;;;;;;;0.10;0.10;;;10.40;69.30;;;;;;4977157;28;20046;-78
2022/05/29 00:09:47;;;;;;;0.15;0.15;;;10.40;69.40;;;;;;4977207;28;20046;-78
2022/05/29 00:12:14;;;;;;;0.10;0.10;;;10.50;69.50;;;;;;4977525;28;20042;-78
2022/05/29 00:14:41;;;;;;;0.40;0.20;;;10.40;69.50;;;;;;4977281;28;20166;-78
2022/05/29 00:17:08;;;;;;;0.47;0.30;;;10.40;69.50;;;;;;4994806;28;20131;-78
2022/05/29 00:19:34;;;;;;;0.57;0.35;;;10.40;69.60;;;;;;4994925;28;20101;-78
2022/05/29 00:22:01;;;;;;;1.20;0.40;;;10.50;69.70;;;;;;4994430;28;20074;-78
2022/05/29 00:24:27;;;;;;;0.20;0.20;;;10.40;69.70;;;;;;4977312;28;20117;-78
2022/05/29 00:26:54;;;;;;;0.13;0.13;;;10.40;69.80;;;;;;4995022;28;20117;-78
2022/05/29 00:29:21;;;;;;;0.35;0.20;;;10.40;69.90;;;;;;4976726;28;20125;-77
2022/05/29 00:31:46;;;;;;;0.45;0.30;;;10.40;70.00;;;;;;4977311;28;20066;-78
2022/05/29 00:34:12;;;;;;;0.90;0.30;;;10.40;70.10;;;;;;4994547;28;20058;-77
2022/05/29 00:36:42;;;;;;;0.52;0.30;;;10.40;70.10;;;;;;4994325;28;20030;-77
2022/05/29 00:39:10;;;;;;;0.20;0.20;;;10.40;70.20;;;;;;4994109;28;20034;-77
2022/05/29 00:41:38;;;;;;;0.50;0.35;;;10.30;70.20;;;;;;4977702;28;20070;-78
2022/05/29 00:44:16;;;;;;;0.50;0.30;;;10.30;70.20;;;;;;4994607;28;20062;-77
2022/05/29 00:47:01;;;;;;;0.30;0.30;;;10.50;70.40;;;;;;4994594;28;20061;-78
2022/05/29 00:49:30;;;;;;;0.25;0.25;;;10.40;70.50;;;;;;4994393;28;20053;-77
2022/05/29 00:52:05;;;;;;;0.65;0.22;;;10.50;70.60;;;;;;4977032;28;20489;-78
2022/05/29 00:54:42;;;;;;;0.90;0.25;;;10.40;70.60;;;;;;4977463;28;20041;-77
2022/05/29 00:57:10;;;;;;;0.17;0.17;;;10.40;70.60;;;;;;4961797;28;20393;-77
2022/05/29 00:59:37;;;;;;;0.70;0.20;;;10.40;70.70;;;;;;4960096;28;20042;-77
2022/05/29 01:02:04;;;;;;;0.88;0.20;;;10.40;70.80;;;;;;4994651;28;20117;-77
2022/05/29 01:04:35;;;;;;;0.28;0.28;;;10.50;70.90;;;;;;4977236;28;20037;-76
2022/05/29 01:07:06;;;;;;;0.13;0.13;;;10.40;71.00;;;;;;4993892;28;20472;-77
2022/05/29 01:09:34;;;;;;;0.10;0.10;;;10.40;71.00;;;;;;4994089;28;20481;-76
2022/05/29 01:12:07;;;;;;;0.22;0.22;;;10.30;71.00;;;;;;4994079;28;20042;-77
2022/05/29 01:14:52;;;;;;;1.38;0.13;;;10.30;71.20;;;;;;4993949;28;20484;-77
2022/05/29 01:17:33;;;;;;;0.20;0.20;;;10.40;71.50;;;;;;4992225;28;20039;-77
2022/05/29 01:20:23;;;;;;;0.40;0.30;;;10.40;71.50;;;;;;4977586;28;20396;-77
2022/05/29 01:23:25;;;;;;;0.30;0.30;;;10.50;71.50;;;;;;4979304;28;20038;-78
2022/05/29 01:26:15;;;;;;;0.20;0.20;;;10.40;71.50;;;;;;4993638;28;21445;-77
2022/05/29 01:28:50;;;;;;;0.22;0.20;;;10.40;71.50;;;;;;4993464;28;20034;-77
2022/05/29 01:31:31;;;;;;;0.20;0.20;;;10.40;71.60;;;;;;4960415;28;20045;-77
2022/05/29 01:34:35;;;;;;;0.30;0.30;;;10.40;71.80;;;;;;4976532;28;20043;-78
2022/05/29 01:37:15;;;;;;;0.20;0.20;;;10.50;71.90;;;;;;4993316;28;20097;-78
2022/05/29 01:39:51;;;;;;;0.30;0.20;;;10.50;71.90;;;;;;4993539;28;20047;-77
2022/05/29 01:42:32;;;;;;;0.95;0.30;;;10.50;72.00;;;;;;4993278;28;20548;-77
2022/05/29 01:45:04;;;;;;;;;;;10.60;72.20;;;;;;4993558;28;20061;-78
2022/05/29 01:47:35;;;;;;;;;;;10.50;71.90;;;;;;4993609;28;19906;-78
2022/05/29 01:50:06;;;;;;;0.20;0.20;;;10.50;71.80;;;;;;4993571;28;19909;-77
2022/05/29 01:52:38;;;;;;;0.20;0.20;;;10.50;71.70;;;;;;4975864;28;20038;-77
2022/05/29 01:55:12;;;;;;;0.68;0.20;;;10.40;71.90;;;;;;4960153;28;20034;-78
2022/05/29 01:57:43;;;;;;;0.50;0.32;;;10.40;72.10;;;;;;4959248;28;20090;-78
2022/05/29 02:00:17;;;;;;;0.40;0.30;;;10.40;72.20;;;;;;4975536;28;20077;-77
2022/05/29 02:03:07;;;;;;;0.20;0.20;;;10.40;72.30;;;;;;4992969;28;20039;-78
2022/05/29 02:05:40;;;;;;;0.38;0.30;;;10.40;72.50;;;;;;4992917;28;20038;-77
2022/05/29 02:08:34;;;;;;;0.28;0.22;;;10.40;72.50;;;;;;4959899;28;20041;-76
2022/05/29 02:11:06;;;;;;;0.20;0.20;;;10.30;72.60;;;;;;4992512;28;20058;-77
2022/05/29 02:14:10;;;;;;;0.25;0.20;;;10.40;72.70;;;;;;4975281;28;20050;-77
2022/05/29 02:16:45;;;;;;;0.30;0.30;;;10.30;72.80;;;;;;4992440;28;20096;-77
2022/05/29 02:19:29;;;;;;;0.50;0.20;;;10.30;72.80;;;;;;4975162;28;20046;-77
2022/05/29 02:22:10;;;;;;;0.30;0.20;;;10.30;72.90;;;;;;4959495;28;20069;-77
2022/05/29 02:24:41;;;;;;;1.05;0.25;;;10.30;72.90;;;;;;4992428;28;20079;-77
2022/05/29 02:27:31;;;;;;;0.20;0.20;;;10.30;73.00;;;;;;4992478;28;20039;-77
2022/05/29 02:29:59;;;;;;;0.55;0.55;;;10.30;73.10;;;;;;4992652;28;20105;-76
2022/05/29 02:33:00;;;;;;;1.48;0.40;;;10.20;73.00;;;;;;4958803;28;20034;-76
2022/05/29 02:35:35;;;;;;;0.90;0.57;;;10.30;73.20;;;;;;4975088;28;20042;-77
2022/05/29 02:38:13;;;;;;;0.43;0.20;;;10.20;73.20;;;;;;4991121;28;20049;-77
2022/05/29 02:40:57;;;;;;;1.05;0.30;;;10.30;73.40;;;;;;4973626;28;20043;-77
2022/05/29 02:43:40;;;;;;;0.30;0.20;;;10.20;73.40;;;;;;4991207;28;20042;-78
2022/05/29 02:46:22;;;;;;;0.35;0.30;;;10.20;73.40;;;;;;4992897;28;20038;-77
2022/05/29 02:49:04;;;;;;;0.30;0.30;;;10.20;74.10;;;;;;4982637;28;20465;-77
2022/05/29 02:51:56;;;;;;;0.35;0.25;;;10.20;73.50;;;;;;4992662;28;20042;-77
2022/05/29 02:54:27;;;;;;;;;;;10.10;73.50;;;;;;4992751;28;20049;-77
2022/05/29 02:56:55;;;;;;;0.30;0.20;;;10.10;73.50;;;;;;4992573;28;19906;-77
2022/05/29 02:59:26;;;;;;;0.35;0.30;;;10.10;73.50;;;;;;4974711;28;20438;-77
2022/05/29 03:02:23;;;;;;;0.47;0.30;;;10.10;73.60;;;;;;4992263;28;20054;-77
2022/05/29 03:05:15;;;;;;;0.30;0.20;;;10.10;73.70;;;;;;4974661;28;20033;-78
2022/05/29 03:08:10;;;;;;;0.20;0.20;;;10.10;73.70;;;;;;4991756;28;20053;-77
2022/05/29 03:10:41;;;;;;;0.20;0.20;;;10.20;73.80;;;;;;4990112;28;20044;-77
2022/05/29 03:13:19;;;;;;;0.30;0.13;;;10.10;73.80;;;;;;4958891;28;20038;-78
2022/05/29 03:16:07;;;;;;;1.15;0.20;;;10.20;73.90;;;;;;4992046;28;20038;-78
2022/05/29 03:19:00;;;;;;;0.63;0.20;;;10.10;73.90;;;;;;4963481;28;20050;-78
2022/05/29 03:21:41;;;;;;;0.38;0.10;;;10.10;73.90;;;;;;4991140;28;20039;-78
2022/05/29 03:24:30;;;;;;;0.82;0.20;;;10.00;74.00;;;;;;4975857;28;20117;-78
2022/05/29 03:27:15;;;;;;;0.25;0.20;;;10.10;74.10;;;;;;4992089;28;20473;-78
2022/05/29 03:29:51;;;;;;;0.45;0.30;;;10.00;74.10;;;;;;4991744;28;20041;-78
2022/05/29 03:32:19;;;;;;;0.47;0.20;;;10.00;74.20;;;;;;4990554;28;20034;-79
2022/05/29 03:34:45;;;;;;;0.30;0.20;;;10.00;74.20;;;;;;4974187;28;20042;-79
2022/05/29 03:37:11;;;;;;;0.28;0.28;;;10.00;74.40;;;;;;4974604;28;20034;-78
2022/05/29 03:39:37;;;;;;;0.32;0.30;;;10.00;74.40;;;;;;4990137;28;20038;-79
2022/05/29 03:42:05;;;;;;;0.20;0.20;;;10.00;74.50;;;;;;4991680;28;20451;-78
2022/05/29 03:44:32;;;;;;;0.22;0.20;;;10.00;74.60;;;;;;4991936;28;20392;-79
2022/05/29 03:46:57;;;;;;;0.55;0.30;;;10.00;74.60;;;;;;4974516;28;20030;-79
2022/05/29 03:49:24;;;;;;;0.30;0.30;;;10.00;74.70;;;;;;4973869;28;20042;-78
2022/05/29 03:51:50;;;;;;;0.15;0.15;;;10.00;74.70;;;;;;4957393;28;20047;-78
2022/05/29 03:54:16;;;;;;;0.25;0.25;;;10.10;74.80;;;;;;4974637;28;20089;-78
2022/05/29 03:56:41;;;;;;;0.50;0.30;;;10.10;74.80;;;;;;4974201;28;20459;-79
2022/05/29 03:59:07;;;;;;;0.28;0.25;;;10.20;74.90;;;;;;4991498;28;20428;-78
2022/05/29 04:01:34;;;;;;;0.40;0.30;;;10.20;74.90;;;;;;4973629;28;20480;-78
2022/05/29 04:03:59;;;;;;;0.77;0.25;;;10.20;74.90;;;;;;4990284;28;20042;-79
2022/05/29 04:06:28;;;;;;;0.20;0.20;;;10.20;74.90;;;;;;4991477;28;20034;-79
2022/05/29 04:14:17;;;;;;;0.40;0.30;;;10.30;75.00;;;;;;4961455;28;20043;-78
2022/05/29 04:16:43;;;;;;;2.13;0.30;;;10.30;75.60;;;;;;4991411;28;20040;-78
2022/05/29 04:19:08;;;;;;;0.30;0.20;;;10.30;75.00;;;;;;4991888;28;20133;-78
2022/05/29 04:21:34;;;;;;;0.75;0.20;;;10.40;75.10;;;;;;4957734;28;20549;-78
2022/05/29 04:24:00;;;;;;;0.73;0.30;;;10.40;75.00;;;;;;4991839;28;20026;-78
2022/05/29 04:26:26;;;;;;;0.65;0.20;;;10.40;75.00;;;;;;4991310;28;20543;-79
2022/05/29 04:28:51;;;;;;;0.52;0.32;;;10.50;75.10;;;;;;4991886;28;20034;-78
2022/05/29 04:31:17;;;;;;;0.63;0.30;;;10.50;75.10;;;;;;4990530;28;20046;-78
2022/05/29 04:33:43;;;;;;;0.28;0.20;;;10.50;75.20;;;;;;4976701;28;20034;-78
2022/05/29 04:36:08;;;;;;;0.47;0.32;;;10.50;75.10;;;;;;4977003;28;20394;-78
2022/05/29 04:38:34;;;;;;;0.30;0.28;;;10.60;75.10;;;;;;4976433;28;20035;-78
2022/05/29 04:41:06;;;;;;;1.90;0.38;;;10.60;75.10;;;;;;4994401;28;20045;-78
2022/05/29 04:43:32;;;;;;;0.30;0.20;;;10.70;75.10;;;;;;4960985;28;20086;-78
2022/05/29 04:45:58;;;;;;;1.13;0.40;;;10.60;75.10;;;;;;4994804;28;20085;-78
2022/05/29 04:48:24;;;;;;;0.88;0.20;;;10.60;75.10;;;;;;4960437;28;20062;-78
2022/05/29 04:50:57;;;;;;;0.63;0.30;;;10.70;75.10;;;;;;4986341;28;20038;-78
2022/05/29 04:53:23;;;;;;;0.30;0.30;;;10.70;75.10;;;;;;4994503;28;20069;-78
2022/05/29 04:55:52;;;;;;;0.20;0.20;;;10.70;75.10;;;;;;4994627;28;20046;-78
2022/05/29 04:58:18;;;;;;;0.60;0.20;;;10.70;75.10;;;;;;4993251;28;20042;-78
2022/05/29 05:00:45;;;;;;;0.17;0.17;;;10.80;75.10;;;;;;4976972;28;20047;-78
2022/05/29 05:03:10;;;;;;;0.10;0.10;;;10.80;75.10;;;;;;4976929;28;20038;-78
2022/05/29 05:05:36;;;;;;;0.73;0.30;;;10.90;75.10;;;;;;4976945;28;20393;-78
2022/05/29 05:08:03;;;;;;;0.20;0.20;;;10.80;75.10;;;;;;4977415;28;20477;-78
2022/05/29 05:10:29;;;;;;;0.20;0.20;;;10.80;75.20;;;;;;4960447;28;20086;-78
2022/05/29 05:12:54;;;;;;;0.20;0.20;;;10.90;75.30;;;;;;4994337;28;20132;-78
2022/05/29 05:15:21;;;;;;;0.20;0.20;;;10.90;75.40;;;;;;4994328;28;20030;-79
2022/05/29 05:17:47;;;;;;;1.02;0.30;;;10.90;75.30;;;;;;4993875;28;20034;-78
2022/05/29 05:20:13;;;;;;;0.40;0.20;;;10.90;75.90;;;;;;4993889;28;20487;-78
2022/05/29 05:22:39;;;;;;;0.17;0.15;;;11.00;75.30;;;;;;4976454;28;20061;-78
2022/05/29 05:25:05;;;;;;;0.43;0.32;;;11.00;75.30;;;;;;4994020;28;20068;-79
2022/05/29 05:27:31;;;;;;;0.22;0.20;;;11.00;75.30;;;;;;4993680;28;20065;-78
2022/05/29 05:29:57;;;;;;;0.20;0.20;;;11.00;75.40;;;;;;4975634;28;20101;-78
2022/05/29 05:32:23;;;;;;;0.20;0.20;;;11.00;75.40;;;;;;4994341;28;20042;-78
2022/05/29 05:34:48;;;;;;;0.20;0.20;;;11.00;75.50;;;;;;4976400;28;20066;-78
2022/05/29 05:37:14;;;;;;;0.90;0.40;;;11.00;75.50;;;;;;4976151;28;20496;-78
2022/05/29 05:39:41;;;;;;;0.30;0.30;;;11.00;75.40;;;;;;4960141;28;20490;-78
2022/05/29 05:42:08;;;;;;;1.08;0.50;;;10.90;75.40;;;;;;4993625;28;20042;-78
2022/05/29 05:44:34;;;;;;;0.55;0.25;;;11.00;75.60;;;;;;4992575;28;20034;-78
2022/05/29 05:46:59;;;;;;;0.40;0.25;;;11.00;75.70;;;;;;4994240;28;20109;-78
2022/05/29 05:49:25;;;;;;;0.45;0.30;;;11.00;75.70;;;;;;4994096;28;20424;-79
2022/05/29 05:51:51;;;;;;;0.20;0.20;;;11.00;75.80;;;;;;4976241;28;20038;-78
2022/05/29 05:54:18;;;;;;;1.50;0.40;;;10.80;75.80;;;;;;4993634;28;20086;-78
2022/05/29 05:56:47;;;;;;;0.45;0.38;;;11.00;76.00;;;;;;4993690;28;20117;-78
2022/05/29 05:59:14;;;;;;;0.30;0.30;;;11.00;76.10;;;;;;4993259;28;20035;-79
2022/05/29 06:01:41;;;;;;;0.20;0.20;;;10.90;76.10;;;;;;4993587;28;20039;-78
2022/05/29 06:04:07;;;;;;;0.65;0.30;;;11.00;76.30;;;;;;4976185;28;20370;-78
2022/05/29 06:06:32;;;;;;;0.47;0.30;;;11.00;76.30;;;;;;4976526;28;20041;-77
2022/05/29 06:08:58;;;;;;;0.35;0.20;;;11.10;76.20;;;;;;4993028;28;20037;-78
2022/05/29 06:11:26;;;;;;;0.28;0.28;;;11.10;76.30;;;;;;4975775;28;21075;-78
2022/05/29 06:13:52;;;;;;;0.50;0.40;;;11.10;76.30;;;;;;4959947;28;20046;-78
2022/05/29 06:16:18;;;;;;;0.40;0.30;;;11.20;76.10;;;;;;4992979;28;20045;-78
2022/05/29 06:18:44;;;;;;;0.57;0.30;;;11.20;76.10;;;;;;4975903;28;20042;-79
2022/05/29 06:21:10;;;;;;;0.43;0.20;;;11.30;76.10;;;;;;4976073;28;20051;-79
2022/05/29 06:23:38;;;;;;;0.22;0.22;;;11.30;76.10;;;;;;4959531;28;20125;-79
2022/05/29 06:26:07;;;;;;;0.35;0.17;;;11.30;76.10;;;;;;4975326;28;20081;-78
2022/05/29 06:28:33;;;;;;;0.20;0.20;;;11.40;76.10;;;;;;4975309;28;20039;-78
2022/05/29 06:30:58;;;;;;;0.32;0.20;;;11.40;76.00;;;;;;4975465;28;20035;-78
2022/05/29 06:33:26;;;;;;;0.20;0.20;;;11.50;76.10;;;;;;4959412;28;20034;-78
2022/05/29 06:35:53;;;;;;;0.30;0.30;;;11.60;76.00;;;;;;4992546;28;20038;-78
2022/05/29 06:38:19;;;;;;;0.10;0.10;;;11.60;75.90;;;;;;4959254;28;20493;-78
2022/05/29 06:40:49;;;;;;;0.70;0.30;;;11.60;75.90;;;;;;4959324;28;20107;-78
2022/05/29 06:43:15;;;;;;;0.28;0.20;;;11.70;75.90;;;;;;4992994;28;20034;-78
2022/05/29 06:45:41;;;;;;;0.30;0.30;;;11.80;75.90;;;;;;4975044;28;20039;-78
2022/05/29 06:48:07;;;;;;;0.20;0.20;;;11.80;75.80;;;;;;4975855;28;20477;-78
2022/05/29 06:50:33;;;;;;;1.23;0.43;;;11.90;75.80;;;;;;4959131;28;20034;-78
2022/05/29 06:52:59;;;;;;;0.52;0.20;;;11.90;75.70;;;;;;4975285;28;20057;-78
2022/05/29 06:55:25;;;;;;;0.20;0.20;;;11.90;75.70;;;;;;4975275;28;20034;-78
2022/05/29 06:57:52;;;;;;;0.43;0.30;;;11.80;75.80;;;;;;4991985;28;20188;-78
2022/05/29 07:08:23;;;;;;;0.60;0.30;;;11.70;76.50;;;;;;4976147;28;20038;-78
2022/05/29 07:10:48;;;;;;;0.68;0.30;;;11.70;76.50;;;;;;4974946;28;20555;-79
2022/05/29 07:13:14;;;;;;;0.98;0.22;;;11.80;76.60;;;;;;4992564;28;20477;-77
2022/05/29 07:15:40;;;;;;;0.25;0.20;;;11.70;76.50;;;;;;4979288;28;20042;-77
2022/05/29 07:18:06;;;;;;;0.60;0.22;;;11.90;76.70;;;;;;4974918;28;20034;-77
2022/05/29 07:20:35;;;;;;;0.45;0.30;;;11.80;76.60;;;;;;4992309;28;20327;-77
2022/05/29 07:23:00;;;;;;;1.20;0.40;;;11.80;76.40;;;;;;4975265;28;20085;-78
2022/05/29 07:25:26;;;;;;;0.68;0.28;;;11.80;76.50;;;;;;4992732;28;20047;-77
2022/05/29 07:27:52;;;;;;;0.28;0.20;;;11.80;76.50;;;;;;4992558;28;20085;-78
2022/05/29 07:30:18;;;;;;;0.52;0.20;;;11.90;76.60;;;;;;4992070;28;20046;-79
2022/05/29 07:32:44;;;;;;;0.20;0.20;;;11.80;76.50;;;;;;4992073;28;20133;-78
2022/05/29 07:35:09;;;;;;;0.75;0.40;;;11.80;76.40;;;;;;4974768;28;20038;-78
2022/05/29 07:37:35;;;;;;;0.20;0.20;;;11.80;76.50;;;;;;4991880;28;20038;-78
2022/05/29 07:40:02;;;;;;;0.70;0.30;;;11.80;76.60;;;;;;4958315;28;20049;-78
2022/05/29 07:45:09;;;;;;;0.20;0.20;;;11.80;76.70;;;;;;4991938;28;20034;-78
2022/05/29 07:47:40;;;;;;;0.50;0.43;;;11.80;76.70;;;;;;4990294;28;20034;-79
2022/05/29 07:50:09;;;;;;;0.10;0.10;;;11.80;76.60;;;;;;4958338;28;20052;-79
2022/05/29 07:52:35;;;;;;;0.60;0.20;;;11.80;76.60;;;;;;4974857;28;20038;-78
2022/05/29 07:55:01;;;;;;;0.55;0.20;;;11.90;76.60;;;;;;4974460;28;20117;-78
2022/05/29 07:57:27;;;;;;;0.25;0.25;;;11.90;76.50;;;;;;4974252;28;20035;-78
2022/05/29 07:59:53;;;;;;;0.10;0.10;;;12.00;76.50;;;;;;4991909;28;20042;-78
2022/05/29 08:02:19;;;;;;;0.43;0.30;;;12.10;76.30;;;;;;4991201;28;20034;-79
2022/05/29 08:04:45;;;;;;;0.20;0.20;;;12.10;76.20;;;;;;4974093;28;20046;-78
2022/05/29 08:07:15;;;;;;;0.85;0.40;;;12.10;76.10;;;;;;4974456;28;20414;-78
2022/05/29 08:09:42;;;;;;;0.20;0.20;;;12.20;76.20;;;;;;4961763;28;20030;-79
2022/05/29 08:12:08;;;;;;;0.28;0.20;;;12.30;76.10;;;;;;4945679;28;20035;-79
2022/05/29 08:14:34;;;;;;;0.30;0.30;;;12.20;76.00;;;;;;4995073;28;20065;-80
2022/05/29 08:17:00;;;;;;;0.22;0.22;;;12.30;76.20;;;;;;4995239;28;20422;-80
2022/05/29 08:19:26;;;;;;;0.20;0.20;;;12.30;76.20;;;;;;4994667;28;20397;-79
2022/05/29 08:21:51;;;;;;;0.38;0.32;;;12.30;76.20;;;;;;4995471;28;20121;-79
2022/05/29 08:32:22;;;;;;;0.30;0.30;;;12.50;76.00;;;;;;4994728;28;20078;-80
2022/05/29 08:34:48;;;;;;;0.40;0.30;;;12.60;76.00;;;;;;4977272;28;20081;-81
2022/05/29 08:37:13;;;;;;;0.85;0.20;;;12.60;76.00;;;;;;4994872;28;20039;-80
2022/05/29 08:39:39;;;;;;;0.40;0.40;;;12.60;76.00;;;;;;4977207;28;20038;-81
2022/05/29 08:42:05;;;;;;;0.30;0.30;;;12.50;76.10;;;;;;4993336;28;20488;-80
2022/05/29 08:44:49;;;;;;;1.08;0.30;;;12.60;76.30;;;;;;4976768;28;20046;-79
2022/05/29 08:50:48;;;;;;;0.40;0.30;;;12.70;76.20;;;;;;4953127;28;20429;-81
2022/05/29 08:53:34;;;;;;;0.10;0.10;;;12.80;75.90;;;;;;4917822;29;20056;-79
2022/05/29 08:56:21;;;;;;;0.20;0.20;;;12.80;75.90;;;;;;4896169;29;20052;-79
2022/05/29 08:59:07;;;;;;;0.50;0.28;;;12.90;76.40;;;;;;4896301;29;20052;-79
2022/05/29 09:02:01;;;;;;;0.32;0.10;;;13.00;75.60;;;;;;4896160;29;20083;-80
2022/05/29 09:04:42;;;;;;;0.75;0.30;;;13.00;75.40;;;;;;4880197;29;20068;-79
2022/05/29 09:07:10;;;;;;;0.10;0.10;;;13.00;75.20;;;;;;4880720;29;20048;-78
2022/05/29 09:09:56;;;;;;;0.82;0.35;;;13.30;75.20;;;;;;4861421;29;20587;-78
2022/05/29 09:12:39;;;;;;;1.38;0.28;;;13.30;75.00;;;;;;4862312;29;20124;-77
2022/05/29 09:15:10;;;;;;;0.57;0.30;;;13.20;74.90;;;;;;4892315;29;20048;-76
2022/05/29 09:17:47;;;;;;;0.50;0.30;;;13.30;75.20;;;;;;4881104;29;20056;-77
2022/05/29 09:20:37;;;;;;;0.45;0.20;;;13.50;75.20;;;;;;4886449;29;20048;-78
2022/05/29 09:23:06;;;;;;;0.30;0.30;;;13.40;74.70;;;;;;4899599;29;20104;-78
2022/05/29 09:25:39;;;;;;;0.30;0.30;;;13.50;74.60;;;;;;4921102;29;20047;-78
2022/05/29 09:28:25;;;;;;;0.47;0.32;;;13.40;74.60;;;;;;4938546;29;20067;-79
2022/05/29 09:31:01;;;;;;;0.22;0.22;;;13.30;74.90;;;;;;4953128;29;20043;-77
2022/05/29 09:37:01;;;;;;;0.70;0.30;;;13.50;74.90;;;;;;4941472;28;20047;-80
2022/05/29 09:39:34;;;;;;;0.75;0.47;;;13.70;74.30;;;;;;4923705;28;20139;-78
2022/05/29 09:42:08;;;;;;;0.60;0.50;;;13.60;74.10;;;;;;4988309;28;20042;-79
2022/05/29 09:44:34;;;;;;;0.20;0.20;;;13.60;74.20;;;;;;4994705;28;20134;-78
2022/05/29 09:49:40;;;;;;;0.20;0.20;;;13.60;74.20;;;;;;4991674;28;20109;-80
2022/05/29 09:52:20;;;;;;;0.65;0.32;;;13.80;74.10;;;;;;4975352;28;20089;-80
2022/05/29 09:54:57;;;;;;;0.45;0.30;;;13.90;73.80;;;;;;4957868;28;20505;-81
2022/05/29 09:57:27;;;;;;;0.47;0.20;;;14.00;73.70;;;;;;4974201;28;20073;-81
2022/05/29 10:00:15;;;;;;;0.77;0.40;;;14.10;73.40;;;;;;4948993;29;20047;-82
2022/05/29 10:02:44;;;;;;;0.38;0.38;;;14.10;73.40;;;;;;4910629;29;20068;-80
2022/05/29 10:05:24;;;;;;;0.82;0.30;;;14.10;73.20;;;;;;4930033;29;20226;-81
2022/05/29 10:07:51;;;;;;;0.47;0.32;;;14.30;72.90;;;;;;4928499;29;20083;-78
2022/05/29 10:10:32;;;;;;;1.05;0.30;;;14.40;72.80;;;;;;4929202;29;20039;-80
2022/05/29 10:12:59;;;;;;;1.20;0.40;;;14.40;72.60;;;;;;4928909;29;20029;-78
2022/05/29 10:15:39;;;;;;;1.15;0.47;;;14.40;72.50;;;;;;4914933;29;20040;-78
2022/05/29 10:18:34;;;;;;;0.28;0.20;;;14.30;72.50;;;;;;4914556;29;20087;-76
2022/05/29 10:21:22;;;;;;;0.52;0.50;;;14.40;72.90;;;;;;4902046;29;20059;-78
2022/05/29 10:23:52;;;;;;;0.30;0.30;;;14.30;72.70;;;;;;4915192;29;20131;-77
2022/05/29 10:26:31;;;;;;;1.50;0.50;;;14.30;72.80;;;;;;4917337;29;20055;-76
2022/05/29 10:28:58;;;;;;;1.10;0.30;;;14.40;72.50;;;;;;4933380;29;20095;-74
2022/05/29 10:31:29;;;;;;;0.65;0.30;;;14.40;72.60;;;;;;4964902;28;20074;-77
2022/05/29 10:34:10;;;;;;;1.77;0.38;;;14.30;72.70;;;;;;4992943;28;20058;-77
2022/05/29 10:36:37;;;;;;;1.77;0.55;;;14.30;72.70;;;;;;4975314;28;20055;-79
2022/05/29 10:39:09;;;;;;;1.15;0.50;;;14.30;72.50;;;;;;4994128;28;20050;-78
2022/05/29 10:41:38;;;;;;;0.55;0.20;;;14.40;72.50;;;;;;4978731;28;20062;-78
2022/05/29 10:44:05;;;;;;;0.95;0.30;;;14.40;72.40;;;;;;4978007;28;20564;-78
2022/05/29 10:46:45;;;;;;;0.60;0.40;;;14.40;72.40;;;;;;4978557;28;20552;-78
2022/05/29 10:49:31;;;;;;;1.30;0.40;;;14.30;72.50;;;;;;4997875;28;20042;-78
2022/05/29 10:52:29;;;;;;;1.55;0.40;;;14.20;72.70;;;;;;4978425;28;20879;-77
2022/05/29 10:55:17;;;;;;;0.20;0.20;;;14.10;72.80;;;;;;4977280;28;20031;-77
2022/05/29 10:58:09;;;;;;;0.45;0.30;;;14.00;73.10;;;;;;4958852;28;20077;-75
2022/05/29 11:00:58;;;;;;;0.20;0.20;;;14.00;73.40;;;;;;4992298;28;20126;-75
2022/05/29 11:03:51;;;;;;;0.63;0.30;;;14.10;73.40;;;;;;4992572;28;20038;-74
2022/05/29 11:06:44;;;;;;;0.60;0.20;;;14.10;73.10;;;;;;4992769;28;20065;-74
2022/05/29 11:09:34;;;;;;;0.30;0.30;;;14.20;72.90;;;;;;4992234;28;20065;-74
2022/05/29 11:12:26;;;;;;;0.40;0.30;;;14.30;72.50;;;;;;4992004;28;20046;-74
2022/05/29 11:15:03;;;;;;;0.52;0.30;;;14.40;72.30;;;;;;4992083;28;20038;-75
2022/05/29 11:17:47;;;;;;;0.82;0.35;;;14.70;71.90;;;;;;4991976;28;20057;-75
2022/05/29 11:20:51;;;;;;;2.17;0.50;;;14.70;71.70;;;;;;4991699;28;20057;-75
2022/05/29 11:23:43;;;;;;;0.15;0.15;;;14.80;71.30;;;;;;4992000;28;20110;-74
2022/05/29 11:26:33;;;;;;;0.45;0.17;;;14.80;71.20;;;;;;4990385;28;20030;-74
2022/05/29 11:29:08;;;;;;;0.63;0.40;;;14.80;71.10;;;;;;4986249;28;20070;-75
2022/05/29 11:31:47;;;;;;;0.95;0.40;;;15.00;70.90;;;;;;4975065;28;20133;-74
2022/05/29 11:34:26;;;;;;;0.55;0.30;;;15.10;70.40;;;;;;4975601;28;20039;-74
2022/05/29 11:37:06;;;;;;;1.48;0.50;;;15.10;70.40;;;;;;4975516;28;20040;-76
2022/05/29 11:39:45;;;;;;;1.23;0.30;;;15.10;70.40;;;;;;4974527;28;20075;-74
2022/05/29 11:42:18;;;;;;;1.17;0.40;;;15.10;70.40;;;;;;4975384;28;20042;-76
2022/05/29 11:44:54;;;;;;;1.30;0.40;;;15.10;70.40;;;;;;4978911;28;20113;-77
2022/05/29 11:53:43;;;;;;;0.55;0.35;;;15.00;70.80;;;;;;4995087;28;20511;-75
2022/05/29 11:56:17;;;;;;;0.88;0.35;;;15.10;70.70;;;;;;4995285;28;20068;-75
2022/05/29 11:58:51;;;;;;;0.70;0.30;;;15.20;70.50;;;;;;4995688;28;20035;-75
2022/05/29 12:01:38;;;;;;;0.45;0.40;;;15.30;70.20;;;;;;4946354;28;20073;-76
2022/05/29 12:04:13;;;;;;;0.40;0.30;;;15.50;70.00;;;;;;4995217;28;20046;-76
2022/05/29 12:06:44;;;;;;;0.88;0.38;;;15.40;69.60;;;;;;4978121;28;20508;-77
2022/05/29 12:09:13;;;;;;;;;;;15.50;69.50;;;;;;4978883;28;20104;-77
2022/05/29 12:11:47;;;;;;;0.40;0.35;;;15.50;69.40;;;;;;4994527;28;19914;-74
2022/05/29 12:14:26;;;;;;;0.20;0.20;;;15.60;69.30;;;;;;4994926;28;20053;-76
2022/05/29 12:17:02;;;;;;;2.90;0.40;;;15.80;68.90;;;;;;4995333;28;20062;-76
2022/05/29 12:19:34;;;;;;;0.68;0.30;;;15.90;68.60;;;;;;4978153;28;20043;-77
2022/05/29 12:22:05;;;;;;;1.10;0.30;;;15.90;68.40;;;;;;4977379;28;20116;-75
2022/05/29 12:24:38;;;;;;;1.20;0.50;;;15.90;68.20;;;;;;4960737;28;20035;-77
2022/05/29 12:27:14;;;;;;;0.20;0.20;;;16.00;68.10;;;;;;4946201;28;20034;-76
2022/05/29 12:29:57;;;;;;;0.82;0.32;;;16.00;68.30;;;;;;4994976;28;20026;-76
2022/05/29 12:32:27;;;;;;;2.47;0.60;;;16.10;68.30;;;;;;4978516;28;20065;-75
2022/05/29 12:35:07;;;;;;;0.30;0.30;;;16.10;68.00;;;;;;4977619;28;20089;-75
2022/05/29 12:37:57;;;;;;;0.40;0.40;;;16.10;67.90;;;;;;4978886;28;20027;-75
2022/05/29 12:40:46;;;;;;;0.32;0.20;;;16.20;67.80;;;;;;4977184;28;20409;-75
2022/05/29 12:43:38;;;;;;;0.30;0.30;;;16.20;67.50;;;;;;4996289;28;20062;-77
2022/05/29 12:46:37;;;;;;;0.47;0.45;;;16.20;67.50;;;;;;4995556;28;20105;-74
2022/05/29 12:49:37;;;;;;;0.70;0.30;;;16.20;67.80;;;;;;4980333;28;20030;-77
2022/05/29 12:52:32;;;;;;;0.35;0.28;;;16.00;67.60;;;;;;4964125;28;20444;-77
2022/05/29 12:55:17;;;;;;;0.25;0.25;;;15.80;68.00;;;;;;4965745;28;20058;-76
2022/05/29 12:58:06;;;;;;;0.45;0.20;;;15.70;68.30;;;;;;4979602;28;20042;-78
2022/05/29 13:01:07;;;;;;;0.70;0.32;;;15.60;68.20;;;;;;4947780;28;20054;-79
2022/05/29 13:03:54;;;;;;;0.98;0.40;;;15.40;67.90;;;;;;4983331;28;20053;-76
2022/05/29 13:07:00;;;;;;;0.20;0.20;;;15.50;68.30;;;;;;4980394;28;20118;-79
2022/05/29 13:10:01;;;;;;;0.40;0.40;;;15.30;68.20;;;;;;4974386;28;20401;-79
2022/05/29 13:12:34;;;;;;;0.23;0.20;;;15.40;68.00;;;;;;4959886;28;20046;-78
2022/05/29 13:15:06;;;;;;;0.17;0.17;;;15.50;67.80;;;;;;4957496;28;20038;-78
2022/05/29 13:17:35;;;;;;;0.68;0.30;;;15.70;67.40;;;;;;4956908;28;20039;-78
2022/05/29 13:20:20;;;;;;;0.25;0.20;;;15.90;67.70;;;;;;4941554;28;20094;-80
2022/05/29 13:23:02;;;;;;;0.20;0.20;;;16.00;66.50;;;;;;4972491;28;20051;-79
2022/05/29 13:25:52;;;;;;;0.20;0.20;;;16.00;66.50;;;;;;4943921;28;20050;-76
2022/05/29 13:28:46;;;;;;;0.20;0.20;;;15.80;66.70;;;;;;4974526;28;20138;-77
2022/05/29 13:31:15;;;;;;;0.77;0.40;;;15.60;67.10;;;;;;4956921;28;20027;-76
2022/05/29 13:33:49;;;;;;;0.35;0.20;;;15.60;67.30;;;;;;4973158;28;20035;-77
2022/05/29 13:36:53;;;;;;;1.67;0.30;;;15.50;67.40;;;;;;4972930;28;20058;-78
2022/05/29 13:39:53;;;;;;;0.30;0.30;;;15.50;67.50;;;;;;4974624;28;20035;-76
2022/05/29 13:42:26;;;;;;;0.50;0.22;;;15.50;67.30;;;;;;4976038;28;20047;-76
2022/05/29 13:45:32;;;;;;;1.02;0.30;;;15.60;67.20;;;;;;4974092;28;20122;-81
2022/05/29 13:48:17;;;;;;;0.77;0.22;;;15.70;66.80;;;;;;4966508;28;20049;-80
2022/05/29 13:54:51;;;;;;;1.13;0.30;;;15.90;66.30;;;;;;4951727;29;20035;-81
2022/05/29 14:03:58;;;;;;;0.52;0.20;;;16.00;65.90;;;;;;4919126;29;20036;-77
2022/05/29 14:06:34;;;;;;;0.85;0.30;;;15.70;65.90;;;;;;4901712;29;20043;-78
2022/05/29 14:09:07;;;;;;;0.25;0.25;;;15.70;66.20;;;;;;4917737;29;20068;-77
2022/05/29 14:11:49;;;;;;;0.77;0.30;;;15.70;66.30;;;;;;4916017;29;20195;-77
2022/05/29 14:14:41;;;;;;;0.88;0.20;;;15.70;66.30;;;;;;4917898;29;20485;-77
2022/05/29 14:17:14;;;;;;;0.60;0.20;;;15.70;66.20;;;;;;4918399;29;20048;-77